Time;durP1;ratioP1;P1;durP2;ratioP2;P2;SDS_P1;SDS_P2;PMS_P1;PMS_P2;Temp;Humidity;BMP_temperature;BMP_pressure;BME280_temperature;BME280_humidity;BME280_pressure;Samples;Min_cycle;Max_cycle;Signal;HPM_P1;HPM_P2
2022/06/23 00:00:42;;;;;;;3.47;2.53;;;;;;;;;;5038924;28;20085;-83
2022/06/23 00:03:07;;;;;;;4.15;3.15;;;;;;;;;;5036872;28;20075;-82
2022/06/23 00:05:37;;;;;;;5.05;3.33;;;;;;;;;;5036608;28;20021;-81
2022/06/23 00:08:04;;;;;;;3.15;2.83;;;;;;;;;;5036551;28;20025;-81
2022/06/23 00:10:38;;;;;;;3.97;3.15;;;;;;;;;;5018823;28;20033;-81
2022/06/23 00:13:14;;;;;;;4.32;2.75;;;;;;;;;;5036070;28;20052;-81
2022/06/23 00:15:49;;;;;;;5.70;2.95;;;;;;;;;;5036318;28;20104;-82
2022/06/23 00:18:18;;;;;;;6.18;3.10;;;;;;;;;;5018636;28;20028;-81
2022/06/23 00:20:48;;;;;;;4.07;3.03;;;;;;;;;;5017341;28;20034;-82
2022/06/23 00:23:25;;;;;;;3.60;2.65;;;;;;;;;;5035958;28;20053;-81
2022/06/23 00:25:59;;;;;;;5.50;3.05;;;;;;;;;;5036371;28;20017;-81
2022/06/23 00:28:30;;;;;;;5.13;3.00;;;;;;;;;;5018150;28;20022;-81
2022/06/23 00:30:59;;;;;;;3.50;3.15;;;;;;;;;;5018494;28;20029;-81
2022/06/23 00:33:34;;;;;;;4.72;2.80;;;;;;;;;;5018293;28;20040;-80
2022/06/23 00:36:00;;;;;;;4.97;2.92;;;;;;;;;;5018189;28;20108;-81
2022/06/23 00:38:36;;;;;;;5.15;2.92;;;;;;;;;;5035663;28;20052;-81
2022/06/23 00:41:07;;;;;;;4.25;2.50;;;;;;;;;;5018286;28;20017;-80
2022/06/23 00:43:53;;;;;;;6.32;3.33;;;;;;;;;;5017940;28;20026;-81
2022/06/23 00:46:25;;;;;;;5.93;3.92;;;;;;;;;;5035162;28;20469;-81
2022/06/23 00:48:51;;;;;;;;;;;;;;;;;;5036275;28;20021;-80
2022/06/23 00:51:38;;;;;;;5.25;3.33;;;;;;;;;;5036214;28;19959;-80
2022/06/23 00:54:11;;;;;;;3.50;2.53;;;;;;;;;;5017662;28;20112;-81
2022/06/23 00:56:45;;;;;;;5.75;3.13;;;;;;;;;;5034069;28;20084;-81
2022/06/23 00:59:19;;;;;;;4.53;3.25;;;;;;;;;;5035371;28;20021;-80
2022/06/23 01:01:55;;;;;;;4.70;2.90;;;;;;;;;;5017297;28;20010;-81
2022/06/23 01:04:29;;;;;;;5.43;3.35;;;;;;;;;;5035341;28;20021;-81
2022/06/23 01:07:00;;;;;;;5.15;2.92;;;;;;;;;;5035037;28;20095;-81
2022/06/23 01:09:42;;;;;;;4.78;3.60;;;;;;;;;;5017092;28;20503;-80
2022/06/23 01:12:32;;;;;;;6.45;3.50;;;;;;;;;;5017404;28;20348;-80
2022/06/23 01:15:16;;;;;;;7.80;4.32;;;;;;;;;;5034957;28;20053;-81
2022/06/23 01:18:02;;;;;;;3.78;2.85;;;;;;;;;;5035029;28;20105;-81
2022/06/23 01:20:31;;;;;;;4.00;3.25;;;;;;;;;;5034558;28;20429;-81
2022/06/23 01:23:18;;;;;;;5.57;3.15;;;;;;;;;;5000308;28;20129;-81
2022/06/23 01:25:50;;;;;;;8.98;3.78;;;;;;;;;;5033813;28;20083;-81
2022/06/23 01:28:25;;;;;;;6.15;4.93;;;;;;;;;;5017075;28;20222;-81
2022/06/23 01:30:55;;;;;;;6.32;3.60;;;;;;;;;;5034582;28;20096;-81
2022/06/23 01:33:44;;;;;;;5.50;3.55;;;;;;;;;;5017040;28;20029;-80
2022/06/23 01:36:25;;;;;;;4.05;3.40;;;;;;;;;;5034437;28;20032;-82
2022/06/23 01:38:55;;;;;;;6.57;4.28;;;;;;;;;;5034407;28;20025;-81
2022/06/23 01:41:39;;;;;;;4.63;3.67;;;;;;;;;;5016771;28;20024;-81
2022/06/23 01:44:09;;;;;;;5.57;3.67;;;;;;;;;;5034494;28;20083;-80
2022/06/23 01:46:37;;;;;;;4.05;2.92;;;;;;;;;;5034561;28;20017;-81
2022/06/23 01:49:08;;;;;;;5.43;3.72;;;;;;;;;;5000053;28;20028;-81
2022/06/23 01:51:35;;;;;;;;;;;;;;;;;;5016785;28;20462;-81
2022/06/23 01:54:37;;;;;;;4.95;3.35;;;;;;;;;;5034177;28;20384;-81
2022/06/23 01:57:11;;;;;;;4.90;3.30;;;;;;;;;;4957700;28;20022;-81
2022/06/23 01:59:41;;;;;;;5.72;3.58;;;;;;;;;;4973055;28;20478;-81
2022/06/23 02:02:27;;;;;;;5.00;3.63;;;;;;;;;;4973333;28;20019;-81
2022/06/23 02:05:18;;;;;;;6.07;3.97;;;;;;;;;;4991069;28;20060;-80
2022/06/23 02:07:50;;;;;;;5.65;3.50;;;;;;;;;;5025886;28;20049;-81
2022/06/23 02:10:24;;;;;;;8.30;5.13;;;;;;;;;;5033146;28;20017;-79
2022/06/23 02:13:04;;;;;;;5.65;3.35;;;;;;;;;;5034024;28;20028;-81
2022/06/23 02:15:40;;;;;;;4.70;4.03;;;;;;;;;;5033798;28;20474;-82
2022/06/23 02:18:06;;;;;;;6.50;3.88;;;;;;;;;;5033675;28;20018;-81
2022/06/23 02:21:00;;;;;;;5.88;4.07;;;;;;;;;;5015902;28;20172;-81
2022/06/23 02:23:35;;;;;;;6.90;3.42;;;;;;;;;;4998646;28;20042;-81
2022/06/23 02:26:03;;;;;;;4.78;3.63;;;;;;;;;;4996215;28;20021;-81
2022/06/23 02:28:37;;;;;;;5.38;3.97;;;;;;;;;;5013878;28;20018;-81
2022/06/23 02:31:15;;;;;;;8.63;3.90;;;;;;;;;;5013985;28;20457;-81
2022/06/23 02:33:50;;;;;;;4.72;3.90;;;;;;;;;;4996202;28;20017;-81
2022/06/23 02:36:29;;;;;;;8.70;3.70;;;;;;;;;;5013791;28;20360;-81
2022/06/23 02:39:00;;;;;;;4.95;3.78;;;;;;;;;;5013721;28;20100;-80
2022/06/23 02:41:33;;;;;;;5.93;4.03;;;;;;;;;;5013890;28;20037;-80
2022/06/23 02:44:16;;;;;;;5.85;4.43;;;;;;;;;;5013318;28;20033;-80
2022/06/23 02:46:54;;;;;;;6.85;3.63;;;;;;;;;;5014189;28;20021;-80
2022/06/23 02:49:27;;;;;;;4.90;3.70;;;;;;;;;;5013584;28;20582;-81
2022/06/23 02:51:58;;;;;;;4.55;3.60;;;;;;;;;;5013750;28;20032;-80
2022/06/23 02:54:36;;;;;;;4.50;4.03;;;;;;;;;;4996105;28;20026;-80
2022/06/23 02:57:13;;;;;;;3.85;3.42;;;;;;;;;;4996171;28;20109;-81
2022/06/23 02:59:51;;;;;;;4.80;3.55;;;;;;;;;;5014189;28;20478;-80
2022/06/23 03:02:32;;;;;;;5.65;3.42;;;;;;;;;;4998426;28;20375;-80
2022/06/23 03:05:17;;;;;;;7.38;3.58;;;;;;;;;;5016298;28;20144;-80
2022/06/23 03:07:48;;;;;;;7.07;4.07;;;;;;;;;;4998816;28;20053;-80
2022/06/23 03:10:19;;;;;;;4.78;3.78;;;;;;;;;;4998488;28;20025;-81
2022/06/23 03:12:55;;;;;;;8.52;3.92;;;;;;;;;;5013728;28;20018;-80
2022/06/23 03:15:33;;;;;;;5.57;3.88;;;;;;;;;;5013674;28;20071;-80
2022/06/23 03:18:02;;;;;;;4.25;3.47;;;;;;;;;;4995685;28;20475;-80
2022/06/23 03:20:28;;;;;;;5.57;4.20;;;;;;;;;;5012785;28;20425;-80
2022/06/23 03:23:04;;;;;;;4.00;3.47;;;;;;;;;;5025885;28;20132;-80
2022/06/23 03:25:40;;;;;;;4.88;3.90;;;;;;;;;;5015334;28;20025;-80
2022/06/23 03:28:05;;;;;;;4.95;4.13;;;;;;;;;;4998969;28;20032;-79
2022/06/23 03:30:40;;;;;;;6.47;3.50;;;;;;;;;;5033156;28;20052;-80
2022/06/23 03:33:18;;;;;;;5.00;4.05;;;;;;;;;;5033255;28;20104;-80
2022/06/23 03:36:02;;;;;;;6.15;3.92;;;;;;;;;;4998856;28;20055;-80
2022/06/23 03:41:38;;;;;;;4.95;4.40;;;;;;;;;;5033424;28;20029;-81
2022/06/23 03:44:29;;;;;;;5.43;3.88;;;;;;;;;;5016989;28;20184;-80
2022/06/23 03:47:06;;;;;;;4.18;3.63;;;;;;;;;;5013114;28;20116;-80
2022/06/23 03:49:35;;;;;;;5.22;4.10;;;;;;;;;;5033502;28;20076;-80
2022/06/23 03:52:05;;;;;;;4.07;3.67;;;;;;;;;;5014866;28;20087;-80
2022/06/23 03:54:38;;;;;;;4.80;3.97;;;;;;;;;;5016083;28;20021;-80
2022/06/23 03:57:14;;;;;;;5.03;3.60;;;;;;;;;;5036648;28;20041;-80
2022/06/23 03:59:43;;;;;;;7.57;4.45;;;;;;;;;;5036265;28;20097;-80
2022/06/23 04:02:20;;;;;;;7.55;4.05;;;;;;;;;;5018495;28;20025;-81
2022/06/23 04:04:56;;;;;;;8.23;4.70;;;;;;;;;;5019275;28;20018;-80
2022/06/23 04:07:32;;;;;;;6.85;3.97;;;;;;;;;;5038246;28;20458;-81
2022/06/23 04:10:13;;;;;;;8.77;4.22;;;;;;;;;;5005475;28;20029;-79
2022/06/23 04:12:44;;;;;;;5.82;4.30;;;;;;;;;;5018995;28;20132;-79
2022/06/23 04:15:12;;;;;;;6.75;3.85;;;;;;;;;;5036431;28;20018;-80
2022/06/23 04:17:41;;;;;;;7.20;4.78;;;;;;;;;;5038102;28;20023;-79
2022/06/23 04:20:10;;;;;;;7.05;3.75;;;;;;;;;;5035842;28;20029;-80
2022/06/23 04:22:42;;;;;;;6.70;4.38;;;;;;;;;;5035520;28;20429;-80
2022/06/23 04:25:09;;;;;;;;;;;;;;;;;;5019172;28;20087;-80
2022/06/23 04:27:49;;;;;;;5.13;4.45;;;;;;;;;;5036708;28;19924;-80
2022/06/23 04:30:32;;;;;;;5.63;4.32;;;;;;;;;;5036036;28;20021;-80
2022/06/23 04:33:05;;;;;;;9.93;4.30;;;;;;;;;;5017923;28;20541;-79
2022/06/23 04:35:44;;;;;;;7.20;4.22;;;;;;;;;;5036238;28;20439;-80
2022/06/23 04:38:15;;;;;;;6.07;4.63;;;;;;;;;;5017998;28;20024;-80
2022/06/23 04:40:40;;;;;;;5.93;4.38;;;;;;;;;;5035837;28;20458;-81
2022/06/23 04:43:26;;;;;;;8.63;4.93;;;;;;;;;;5017206;28;20083;-81
2022/06/23 04:46:06;;;;;;;6.30;4.82;;;;;;;;;;5033857;28;20379;-81
2022/06/23 04:48:53;;;;;;;5.57;4.60;;;;;;;;;;5036099;28;20373;-82
2022/06/23 04:51:33;;;;;;;7.72;4.32;;;;;;;;;;5035833;28;20373;-81
2022/06/23 04:54:01;;;;;;;5.65;4.05;;;;;;;;;;5036035;28;20027;-81
2022/06/23 04:56:41;;;;;;;7.50;4.63;;;;;;;;;;5017369;28;20033;-81
2022/06/23 04:59:07;;;;;;;5.93;4.40;;;;;;;;;;5017543;28;20049;-81
2022/06/23 05:01:39;;;;;;;13.50;7.40;;;;;;;;;;5036370;28;20049;-80
2022/06/23 05:04:11;;;;;;;8.27;4.30;;;;;;;;;;5035912;28;20264;-78
2022/06/23 05:06:43;;;;;;;5.25;4.53;;;;;;;;;;5036123;28;20068;-78
2022/06/23 05:09:21;;;;;;;5.03;4.28;;;;;;;;;;5036005;28;20181;-75
2022/06/23 05:11:49;;;;;;;4.22;3.55;;;;;;;;;;5034716;28;20076;-74
2022/06/23 05:14:15;;;;;;;5.57;3.95;;;;;;;;;;5016816;28;20029;-77
2022/06/23 05:16:42;;;;;;;5.53;4.13;;;;;;;;;;5034952;28;20040;-79
2022/06/23 05:19:16;;;;;;;8.65;3.70;;;;;;;;;;5034717;28;20422;-77
2022/06/23 05:21:46;;;;;;;5.65;4.03;;;;;;;;;;5016766;28;20048;-78
2022/06/23 05:24:22;;;;;;;9.32;4.25;;;;;;;;;;5034743;28;20061;-77
2022/06/23 05:26:48;;;;;;;5.95;4.47;;;;;;;;;;5000947;28;20033;-77
2022/06/23 05:29:19;;;;;;;7.63;3.85;;;;;;;;;;5017955;28;20036;-77
2022/06/23 05:31:51;;;;;;;7.10;4.22;;;;;;;;;;5034848;28;20413;-78
2022/06/23 05:34:25;;;;;;;6.82;4.20;;;;;;;;;;5016679;28;20048;-77
2022/06/23 05:37:00;;;;;;;10.20;4.32;;;;;;;;;;5034093;28;20025;-73
2022/06/23 05:39:51;;;;;;;7.82;6.07;;;;;;;;;;5033536;28;20098;-76
2022/06/23 05:42:26;;;;;;;7.00;4.47;;;;;;;;;;5031005;28;20129;-73
2022/06/23 05:44:56;;;;;;;4.88;3.67;;;;;;;;;;5033908;28;20049;-73
2022/06/23 05:47:21;;;;;;;4.53;3.67;;;;;;;;;;5014933;28;20112;-73
2022/06/23 05:49:52;;;;;;;5.28;3.30;;;;;;;;;;5032468;28;20109;-75
2022/06/23 05:52:41;;;;;;;4.40;2.70;;;;;;;;;;5033864;28;20021;-74
2022/06/23 05:55:12;;;;;;;3.05;2.60;;;;;;;;;;5005504;28;20108;-73
2022/06/23 05:57:53;;;;;;;2.75;2.15;;;;;;;;;;5032902;28;20021;-74
2022/06/23 06:00:21;;;;;;;4.68;2.38;;;;;;;;;;5032897;28;20044;-73
2022/06/23 06:02:52;;;;;;;4.43;2.38;;;;;;;;;;5033451;28;20013;-73
2022/06/23 06:05:29;;;;;;;4.43;2.58;;;;;;;;;;5033562;28;20378;-73
2022/06/23 06:07:55;;;;;;;5.35;2.83;;;;;;;;;;5033694;28;20032;-74
2022/06/23 06:10:22;;;;;;;5.45;2.78;;;;;;;;;;5033774;28;20100;-73
2022/06/23 06:12:50;;;;;;;3.08;2.78;;;;;;;;;;5015268;28;20075;-72
2022/06/23 06:15:27;;;;;;;2.72;2.33;;;;;;;;;;5033750;28;20032;-72
2022/06/23 06:17:56;;;;;;;4.75;2.67;;;;;;;;;;5032666;28;20057;-73
2022/06/23 06:20:25;;;;;;;4.28;2.60;;;;;;;;;;5033288;28;20104;-74
2022/06/23 06:22:51;;;;;;;6.72;2.45;;;;;;;;;;4987766;28;20062;-74
2022/06/23 06:25:23;;;;;;;3.85;2.20;;;;;;;;;;5013682;28;20041;-74
2022/06/23 06:27:48;;;;;;;5.25;2.03;;;;;;;;;;4997163;28;20403;-74
2022/06/23 06:30:15;;;;;;;3.27;2.40;;;;;;;;;;5003907;28;20502;-73
2022/06/23 06:32:42;;;;;;;2.78;1.90;;;;;;;;;;4978762;28;20041;-76
2022/06/23 06:35:23;;;;;;;3.72;2.13;;;;;;;;;;4979349;28;20036;-75
2022/06/23 06:37:50;;;;;;;4.50;1.70;;;;;;;;;;5012808;28;20038;-75
2022/06/23 06:40:16;;;;;;;3.00;2.00;;;;;;;;;;5012448;28;20026;-75
2022/06/23 06:42:50;;;;;;;2.90;1.67;;;;;;;;;;4998363;28;20040;-74
2022/06/23 06:45:19;;;;;;;2.42;1.88;;;;;;;;;;5013155;28;20028;-74
2022/06/23 06:47:46;;;;;;;2.33;1.67;;;;;;;;;;4995574;28;20117;-74
2022/06/23 06:50:17;;;;;;;7.15;2.20;;;;;;;;;;5013000;28;20743;-73
2022/06/23 06:52:43;;;;;;;2.35;1.65;;;;;;;;;;5013023;28;20025;-75
2022/06/23 06:55:29;;;;;;;1.58;1.48;;;;;;;;;;5012585;28;20382;-74
2022/06/23 06:58:00;;;;;;;5.15;1.65;;;;;;;;;;5011440;28;20053;-74
2022/06/23 07:00:30;;;;;;;3.00;1.90;;;;;;;;;;5013150;28;20080;-74
2022/06/23 07:03:03;;;;;;;2.60;2.10;;;;;;;;;;4979211;28;20061;-73
2022/06/23 07:05:48;;;;;;;5.60;1.67;;;;;;;;;;4995231;28;20482;-73
2022/06/23 07:08:29;;;;;;;3.53;1.70;;;;;;;;;;5012213;28;20040;-80
2022/06/23 07:11:03;;;;;;;4.03;1.70;;;;;;;;;;5012774;28;20026;-77
2022/06/23 07:13:28;;;;;;;2.67;1.48;;;;;;;;;;4995430;28;20025;-77
2022/06/23 07:15:55;;;;;;;3.53;1.73;;;;;;;;;;5012215;28;20026;-78
2022/06/23 07:18:34;;;;;;;2.22;1.60;;;;;;;;;;4995944;28;20026;-78
2022/06/23 07:21:06;;;;;;;4.60;1.75;;;;;;;;;;5013219;28;20080;-78
2022/06/23 07:23:39;;;;;;;1.95;1.25;;;;;;;;;;5029813;28;20050;-79
2022/06/23 07:26:13;;;;;;;3.08;1.67;;;;;;;;;;5032672;28;20120;-78
2022/06/23 07:28:42;;;;;;;1.13;1.05;;;;;;;;;;5032203;28;20026;-78
2022/06/23 07:31:13;;;;;;;1.70;1.60;;;;;;;;;;5018295;28;20029;-78
2022/06/23 07:33:44;;;;;;;2.80;1.20;;;;;;;;;;5018585;28;20117;-78
2022/06/23 07:36:17;;;;;;;2.22;1.25;;;;;;;;;;5036579;28;20025;-78
2022/06/23 07:38:45;;;;;;;3.95;1.55;;;;;;;;;;5036179;28;20079;-78
2022/06/23 07:41:17;;;;;;;1.93;1.20;;;;;;;;;;5036345;28;20022;-77
2022/06/23 07:43:43;;;;;;;1.73;1.50;;;;;;;;;;5036422;28;20104;-77
2022/06/23 07:46:09;;;;;;;2.42;1.60;;;;;;;;;;5036184;28;20025;-78
2022/06/23 07:48:35;;;;;;;5.03;1.37;;;;;;;;;;5036860;28;20030;-78
2022/06/23 07:51:02;;;;;;;4.05;1.33;;;;;;;;;;5019001;28;20026;-78
2022/06/23 07:53:29;;;;;;;2.10;1.33;;;;;;;;;;5036340;28;20057;-78
2022/06/23 07:55:55;;;;;;;2.92;1.02;;;;;;;;;;5036545;28;20022;-78
2022/06/23 07:58:23;;;;;;;3.65;1.30;;;;;;;;;;5018394;28;20092;-77
2022/06/23 08:00:51;;;;;;;4.43;1.33;;;;;;;;;;5036013;28;20029;-78
2022/06/23 08:03:24;;;;;;;3.03;1.30;;;;;;;;;;5018773;28;20033;-78
2022/06/23 08:05:51;;;;;;;3.55;1.33;;;;;;;;;;5018348;28;20462;-78
2022/06/23 08:08:19;;;;;;;1.65;1.10;;;;;;;;;;5035934;28;20026;-79
2022/06/23 08:10:46;;;;;;;3.80;1.23;;;;;;;;;;5036135;28;20021;-79
2022/06/23 08:13:11;;;;;;;1.60;0.75;;;;;;;;;;5018248;28;20021;-78
2022/06/23 08:18:26;;;;;;;2.17;0.73;;;;;;;;;;5036006;28;20532;-79
2022/06/23 08:20:55;;;;;;;1.50;0.80;;;;;;;;;;5035745;28;20385;-78
2022/06/23 08:23:23;;;;;;;1.20;0.82;;;;;;;;;;5017555;28;20053;-78
2022/06/23 08:25:48;;;;;;;1.92;0.80;;;;;;;;;;5035622;28;20104;-78
2022/06/23 08:28:15;;;;;;;0.93;0.63;;;;;;;;;;5017549;28;20117;-78
2022/06/23 08:30:42;;;;;;;1.33;0.90;;;;;;;;;;5017629;28;20018;-77
2022/06/23 08:33:07;;;;;;;4.72;0.90;;;;;;;;;;5035597;28;20026;-79
2022/06/23 08:35:32;;;;;;;0.73;0.40;;;;;;;;;;5017748;28;20032;-79
2022/06/23 08:38:01;;;;;;;2.63;0.80;;;;;;;;;;5035469;28;20021;-75
2022/06/23 08:40:42;;;;;;;2.25;0.77;;;;;;;;;;5016422;28;20017;-79
2022/06/23 08:43:15;;;;;;;0.70;0.70;;;;;;;;;;5017121;28;20029;-79
2022/06/23 08:45:43;;;;;;;2.15;0.93;;;;;;;;;;5035492;28;20032;-79
2022/06/23 08:48:23;;;;;;;2.25;1.20;;;;;;;;;;5035503;28;20099;-77
2022/06/23 08:51:02;;;;;;;1.65;0.70;;;;;;;;;;5035407;28;20018;-78
2022/06/23 08:53:34;;;;;;;1.60;1.10;;;;;;;;;;5036626;28;20024;-78
2022/06/23 08:56:12;;;;;;;2.50;1.42;;;;;;;;;;5036040;28;20096;-79
2022/06/23 08:58:41;;;;;;;2.45;1.00;;;;;;;;;;5035465;28;20064;-78
2022/06/23 09:01:09;;;;;;;2.08;0.88;;;;;;;;;;5035426;28;20049;-80
2022/06/23 09:03:50;;;;;;;2.05;0.88;;;;;;;;;;5035494;28;20079;-79
2022/06/23 09:06:15;;;;;;;2.30;0.80;;;;;;;;;;5033627;28;20110;-78
2022/06/23 09:08:48;;;;;;;2.37;0.80;;;;;;;;;;5035828;28;20466;-79
2022/06/23 09:11:13;;;;;;;2.40;1.45;;;;;;;;;;5034583;28;20102;-78
2022/06/23 09:13:57;;;;;;;2.57;1.10;;;;;;;;;;5016715;28;20125;-78
2022/06/23 09:16:45;;;;;;;4.70;1.45;;;;;;;;;;5034543;28;20045;-78
2022/06/23 09:19:21;;;;;;;2.10;1.20;;;;;;;;;;5034503;28;20032;-77
2022/06/23 09:21:52;;;;;;;2.10;1.30;;;;;;;;;;5034758;28;20076;-77
2022/06/23 09:24:28;;;;;;;4.82;1.05;;;;;;;;;;5035730;28;20033;-79
2022/06/23 09:26:57;;;;;;;3.65;1.08;;;;;;;;;;5162291;22;20060;-76
2022/06/23 09:29:42;;;;;;;5.15;1.40;;;;;;;;;;5140645;22;20023;-77
2022/06/23 09:32:12;;;;;;;2.03;1.08;;;;;;;;;;5069203;28;20027;-75
2022/06/23 09:34:37;;;;;;;2.25;1.48;;;;;;;;;;5074305;28;20016;-77
2022/06/23 09:37:21;;;;;;;7.33;1.57;;;;;;;;;;5074090;28;20027;-76
2022/06/23 09:39:56;;;;;;;2.55;1.50;;;;;;;;;;5071571;28;20024;-76
2022/06/23 09:42:21;;;;;;;2.90;1.10;;;;;;;;;;5074284;28;20090;-77
2022/06/23 09:45:05;;;;;;;5.43;1.50;;;;;;;;;;5074244;28;20083;-76
2022/06/23 09:47:42;;;;;;;1.70;1.10;;;;;;;;;;5073839;28;20016;-77
2022/06/23 09:50:16;;;;;;;4.25;1.25;;;;;;;;;;5074365;28;20105;-78
2022/06/23 09:53:01;;;;;;;2.30;1.23;;;;;;;;;;5075729;28;20047;-76
2022/06/23 09:55:51;;;;;;;1.13;1.02;;;;;;;;;;5074120;28;20103;-79
2022/06/23 09:58:16;;;;;;;2.23;1.20;;;;;;;;;;5063816;28;20126;-80
2022/06/23 10:00:44;;;;;;;1.77;1.10;;;;;;;;;;5055389;28;20071;-79
2022/06/23 10:03:19;;;;;;;1.35;1.10;;;;;;;;;;5036396;28;20025;-80
2022/06/23 10:05:50;;;;;;;1.63;1.00;;;;;;;;;;5053999;28;20028;-75
2022/06/23 10:08:34;;;;;;;1.20;1.00;;;;;;;;;;5054206;28;20094;-81
2022/06/23 10:11:08;;;;;;;3.45;1.15;;;;;;;;;;5054244;28;20093;-81
2022/06/23 10:13:45;;;;;;;1.25;1.15;;;;;;;;;;5054056;28;20049;-80
2022/06/23 10:16:23;;;;;;;2.00;1.25;;;;;;;;;;5035628;28;20021;-80
2022/06/23 10:18:56;;;;;;;1.60;1.48;;;;;;;;;;5053624;28;20071;-82
2022/06/23 10:21:25;;;;;;;1.25;1.13;;;;;;;;;;5054202;28;20025;-78
2022/06/23 10:24:02;;;;;;;4.00;1.40;;;;;;;;;;5054037;28;20028;-78
2022/06/23 10:26:38;;;;;;;1.65;1.17;;;;;;;;;;5035414;28;20075;-79
2022/06/23 10:29:21;;;;;;;3.85;1.20;;;;;;;;;;5032895;28;20036;-78
2022/06/23 10:31:56;;;;;;;3.08;1.33;;;;;;;;;;5051052;28;20526;-79
2022/06/23 10:34:39;;;;;;;1.30;1.00;;;;;;;;;;5072446;28;20039;-78
2022/06/23 10:37:05;;;;;;;2.38;1.00;;;;;;;;;;5035283;28;20021;-79
2022/06/23 10:39:49;;;;;;;1.50;1.20;;;;;;;;;;5057932;28;20036;-79
2022/06/23 10:42:23;;;;;;;1.33;1.15;;;;;;;;;;5053444;28;20024;-79
2022/06/23 10:45:07;;;;;;;5.80;2.15;;;;;;;;;;5036051;28;20019;-82
2022/06/23 10:47:39;;;;;;;1.83;1.00;;;;;;;;;;5053589;28;20484;-81
2022/06/23 10:50:04;;;;;;;1.77;0.85;;;;;;;;;;5055267;28;20029;-82
2022/06/23 10:52:35;;;;;;;2.90;1.23;;;;;;;;;;5054652;28;20028;-78
2022/06/23 10:55:06;;;;;;;3.28;1.05;;;;;;;;;;5053248;28;20047;-76
2022/06/23 10:57:38;;;;;;;2.92;1.20;;;;;;;;;;5053294;28;20024;-77
2022/06/23 11:00:30;;;;;;;6.82;1.80;;;;;;;;;;5053318;28;20029;-76
2022/06/23 11:03:10;;;;;;;1.48;1.13;;;;;;;;;;5049499;28;20064;-76
2022/06/23 11:05:42;;;;;;;1.67;0.98;;;;;;;;;;5037644;28;20052;-76
2022/06/23 11:08:07;;;;;;;2.42;1.00;;;;;;;;;;5057075;28;20040;-78
2022/06/23 11:10:39;;;;;;;15.57;3.00;;;;;;;;;;5062189;28;20028;-74
2022/06/23 11:13:19;;;;;;;2.60;1.05;;;;;;;;;;5057757;28;20099;-75
2022/06/23 11:15:44;;;;;;;3.17;1.63;;;;;;;;;;5057704;28;20025;-75
2022/06/23 11:18:16;;;;;;;1.87;1.30;;;;;;;;;;5045082;28;20095;-76
2022/06/23 11:20:48;;;;;;;2.13;1.02;;;;;;;;;;5033094;28;20029;-75
2022/06/23 11:23:31;;;;;;;1.52;1.20;;;;;;;;;;5065809;28;20036;-77
2022/06/23 11:25:59;;;;;;;3.45;1.25;;;;;;;;;;5057322;28;20032;-77
2022/06/23 11:28:24;;;;;;;3.15;1.50;;;;;;;;;;5056841;28;20078;-79
2022/06/23 11:30:53;;;;;;;1.57;1.00;;;;;;;;;;5062648;28;20103;-78
2022/06/23 11:33:37;;;;;;;1.38;1.05;;;;;;;;;;5072185;28;20032;-80
2022/06/23 11:36:14;;;;;;;1.42;0.98;;;;;;;;;;5059172;28;20021;-80
2022/06/23 11:38:51;;;;;;;1.33;1.10;;;;;;;;;;5057374;28;20028;-80
2022/06/23 11:41:23;;;;;;;3.78;1.20;;;;;;;;;;5039897;28;20155;-79
2022/06/23 11:44:06;;;;;;;1.98;1.00;;;;;;;;;;5057316;28;20458;-80
2022/06/23 11:46:32;;;;;;;1.40;1.20;;;;;;;;;;5058118;28;20036;-76
2022/06/23 11:48:57;;;;;;;1.57;1.00;;;;;;;;;;5056498;28;20029;-76
2022/06/23 11:51:41;;;;;;;3.50;1.27;;;;;;;;;;5056777;28;20090;-75
2022/06/23 11:54:12;;;;;;;2.85;1.15;;;;;;;;;;5038368;28;20033;-75
2022/06/23 11:56:49;;;;;;;3.38;1.58;;;;;;;;;;5056904;28;20044;-75
2022/06/23 11:59:23;;;;;;;5.72;1.77;;;;;;;;;;5056429;28;20036;-77
2022/06/23 12:01:48;;;;;;;1.85;1.60;;;;;;;;;;5038351;28;20036;-75
2022/06/23 12:04:32;;;;;;;2.53;1.13;;;;;;;;;;5056162;28;20028;-76
2022/06/23 12:06:59;;;;;;;2.20;1.20;;;;;;;;;;5055810;28;20712;-76
2022/06/23 12:09:28;;;;;;;2.08;1.10;;;;;;;;;;5055643;28;20024;-77
2022/06/23 12:11:55;;;;;;;1.33;1.20;;;;;;;;;;5056085;28;20108;-76
2022/06/23 12:14:23;;;;;;;5.68;1.83;;;;;;;;;;5055959;28;20402;-76
2022/06/23 12:16:57;;;;;;;1.42;1.33;;;;;;;;;;5038408;28;20389;-77
2022/06/23 12:19:29;;;;;;;1.15;1.00;;;;;;;;;;5026112;28;20382;-77
2022/06/23 12:21:58;;;;;;;1.52;0.80;;;;;;;;;;5062125;28;20025;-76
2022/06/23 12:24:36;;;;;;;1.60;1.50;;;;;;;;;;5059101;28;20028;-76
2022/06/23 12:27:04;;;;;;;2.70;1.20;;;;;;;;;;5062068;28;20029;-75
2022/06/23 12:29:38;;;;;;;5.15;1.25;;;;;;;;;;5041206;28;20378;-75
2022/06/23 12:32:19;;;;;;;3.35;1.40;;;;;;;;;;5060580;28;20059;-76
2022/06/23 12:34:50;;;;;;;1.92;1.40;;;;;;;;;;5056175;28;20446;-75
2022/06/23 12:37:40;;;;;;;1.40;1.17;;;;;;;;;;5055667;28;20021;-76
2022/06/23 12:40:20;;;;;;;1.73;1.15;;;;;;;;;;5053272;28;20025;-75
2022/06/23 12:42:49;;;;;;;2.07;1.20;;;;;;;;;;5037925;28;20032;-75
2022/06/23 12:45:37;;;;;;;2.25;1.30;;;;;;;;;;5057409;28;20282;-76
2022/06/23 12:48:05;;;;;;;1.67;1.40;;;;;;;;;;5038839;28;20442;-74
2022/06/23 12:50:48;;;;;;;1.98;1.50;;;;;;;;;;5057042;28;20028;-76
2022/06/23 12:53:27;;;;;;;1.70;1.50;;;;;;;;;;5055744;28;20025;-75
2022/06/23 12:55:58;;;;;;;1.90;1.38;;;;;;;;;;5053407;28;20028;-75
2022/06/23 12:58:28;;;;;;;3.25;1.27;;;;;;;;;;5054081;28;20020;-76
2022/06/23 13:01:00;;;;;;;1.15;0.98;;;;;;;;;;5054658;28;20052;-76
2022/06/23 13:03:32;;;;;;;1.35;1.10;;;;;;;;;;5036964;28;20051;-73
2022/06/23 13:06:16;;;;;;;3.10;1.38;;;;;;;;;;5053878;28;20104;-77
2022/06/23 13:08:52;;;;;;;1.50;1.40;;;;;;;;;;5054984;28;20025;-75
2022/06/23 13:11:19;;;;;;;3.05;1.65;;;;;;;;;;5056401;28;20033;-74
2022/06/23 13:13:49;;;;;;;1.00;1.00;;;;;;;;;;5037598;28;20067;-75
2022/06/23 13:16:20;;;;;;;1.90;1.50;;;;;;;;;;5056618;28;20037;-76
2022/06/23 13:18:49;;;;;;;1.48;1.30;;;;;;;;;;5055440;28;20025;-74
2022/06/23 13:21:19;;;;;;;1.88;0.90;;;;;;;;;;5055195;28;20101;-76
2022/06/23 13:23:46;;;;;;;2.38;1.48;;;;;;;;;;5055673;28;20048;-76
2022/06/23 13:26:18;;;;;;;2.33;1.58;;;;;;;;;;5053998;28;20510;-75
2022/06/23 13:28:45;;;;;;;2.15;1.30;;;;;;;;;;5054539;28;20028;-74
2022/06/23 13:31:29;;;;;;;2.30;1.60;;;;;;;;;;5055950;28;20500;-76
2022/06/23 13:34:03;;;;;;;1.35;1.25;;;;;;;;;;5055108;28;20468;-75
2022/06/23 13:36:36;;;;;;;2.33;1.58;;;;;;;;;;5055149;28;20033;-75
2022/06/23 13:39:10;;;;;;;1.40;1.10;;;;;;;;;;5055069;28;20029;-75
2022/06/23 13:41:41;;;;;;;3.00;1.33;;;;;;;;;;5054705;28;20033;-74
2022/06/23 13:44:19;;;;;;;5.47;1.25;;;;;;;;;;5036828;28;20024;-75
2022/06/23 13:46:54;;;;;;;1.20;1.10;;;;;;;;;;5054091;28;20067;-74
2022/06/23 13:49:31;;;;;;;1.13;1.00;;;;;;;;;;5054864;28;20029;-75
2022/06/23 13:52:14;;;;;;;2.08;1.30;;;;;;;;;;5054546;28;20093;-75
2022/06/23 13:54:48;;;;;;;4.10;1.15;;;;;;;;;;5055091;28;20061;-75
2022/06/23 13:57:26;;;;;;;5.72;1.60;;;;;;;;;;5055332;28;20491;-75
2022/06/23 13:59:54;;;;;;;1.48;1.25;;;;;;;;;;5054608;28;20044;-76
2022/06/23 14:02:26;;;;;;;4.95;1.50;;;;;;;;;;5055346;28;20036;-75
2022/06/23 14:04:55;;;;;;;2.75;1.08;;;;;;;;;;5054783;28;20029;-76
2022/06/23 14:07:32;;;;;;;1.40;1.27;;;;;;;;;;5037191;28;20021;-76
2022/06/23 14:10:04;;;;;;;1.35;1.13;;;;;;;;;;5037161;28;20025;-76
2022/06/23 14:12:34;;;;;;;1.30;1.13;;;;;;;;;;5037376;28;20020;-76
2022/06/23 14:15:13;;;;;;;1.35;1.25;;;;;;;;;;5055343;28;20445;-75
2022/06/23 14:17:59;;;;;;;6.65;1.65;;;;;;;;;;5055168;28;20013;-75
2022/06/23 14:20:33;;;;;;;1.25;1.15;;;;;;;;;;5054087;28;20048;-75
2022/06/23 14:23:01;;;;;;;1.50;1.27;;;;;;;;;;5035956;28;20024;-76
2022/06/23 14:25:30;;;;;;;3.65;1.25;;;;;;;;;;5054567;28;20029;-74
2022/06/23 14:27:58;;;;;;;3.75;1.45;;;;;;;;;;5053742;28;20488;-76
2022/06/23 14:30:23;;;;;;;4.68;1.30;;;;;;;;;;5053594;28;20176;-76
2022/06/23 14:32:58;;;;;;;2.23;1.07;;;;;;;;;;5053205;28;20017;-75
2022/06/23 14:35:33;;;;;;;3.90;1.83;;;;;;;;;;5051997;28;20056;-76
2022/06/23 14:37:59;;;;;;;3.42;1.30;;;;;;;;;;5052440;28;20032;-76
2022/06/23 14:40:43;;;;;;;1.43;1.00;;;;;;;;;;5053002;28;20025;-73
2022/06/23 14:43:14;;;;;;;1.20;1.10;;;;;;;;;;5054016;28;20028;-74
2022/06/23 14:45:51;;;;;;;3.65;1.10;;;;;;;;;;5035592;28;20021;-75
2022/06/23 14:48:35;;;;;;;1.70;1.10;;;;;;;;;;5053772;28;20031;-74
2022/06/23 14:51:07;;;;;;;1.55;1.27;;;;;;;;;;5053492;28;20025;-74
2022/06/23 14:53:32;;;;;;;1.75;1.17;;;;;;;;;;5036054;28;20031;-78
2022/06/23 14:56:16;;;;;;;1.20;1.17;;;;;;;;;;5036336;28;20385;-75
2022/06/23 14:59:00;;;;;;;3.83;1.67;;;;;;;;;;5035698;28;20021;-74
2022/06/23 15:01:42;;;;;;;2.70;2.08;;;;;;;;;;5053771;28;20033;-75
2022/06/23 15:04:13;;;;;;;1.88;1.77;;;;;;;;;;5053418;28;20455;-73
2022/06/23 15:06:51;;;;;;;1.70;1.23;;;;;;;;;;5053867;28;20113;-75
2022/06/23 15:09:17;;;;;;;2.45;1.33;;;;;;;;;;5053929;28;20032;-75
2022/06/23 15:11:46;;;;;;;3.73;1.30;;;;;;;;;;5054048;28;20032;-75
2022/06/23 15:14:11;;;;;;;1.60;1.35;;;;;;;;;;5036303;28;20739;-76
2022/06/23 15:16:41;;;;;;;3.43;1.33;;;;;;;;;;5036490;28;20029;-77
2022/06/23 15:19:07;;;;;;;2.60;1.37;;;;;;;;;;5054519;28;20029;-76
2022/06/23 15:24:22;;;;;;;1.45;1.10;;;;;;;;;;5053531;28;20337;-74
2022/06/23 15:26:54;;;;;;;2.58;1.40;;;;;;;;;;5053679;28;20025;-74
2022/06/23 15:29:26;;;;;;;2.60;1.30;;;;;;;;;;5053571;28;20048;-75